createdAt,value
2022-07-30T00:00:59.900Z,3.20
2022-07-30T00:06:03.302Z,2.40
2022-07-30T00:11:06.513Z,2.58
2022-07-30T00:16:12.241Z,3.00
2022-07-30T00:21:20.333Z,3.05
2022-07-30T00:26:39.119Z,2.50
2022-07-30T00:31:44.349Z,2.75
2022-07-30T00:36:47.903Z,2.63
2022-07-30T00:41:59.452Z,3.08
2022-07-30T00:47:04.570Z,2.97
2022-07-30T00:52:08.123Z,3.63
2022-07-30T00:57:11.259Z,3.30
2022-07-30T01:02:15.954Z,4.10
2022-07-30T01:07:19.148Z,4.43
2022-07-30T01:12:26.265Z,3.60
2022-07-30T01:17:31.021Z,4.07
2022-07-30T01:22:41.825Z,4.35
2022-07-30T01:27:49.808Z,4.30
2022-07-30T01:32:54.831Z,4.28
2022-07-30T01:38:01.066Z,4.72
2022-07-30T01:43:08.101Z,5.28
2022-07-30T01:48:13.294Z,3.88
2022-07-30T01:53:18.276Z,5.10
2022-07-30T01:58:26.072Z,4.97
2022-07-30T02:03:30.095Z,4.75
2022-07-30T02:08:40.126Z,4.68
2022-07-30T02:13:51.932Z,4.03
2022-07-30T02:19:06.243Z,4.82
2022-07-30T02:24:14.097Z,4.82
2022-07-30T02:29:20.377Z,5.45
2022-07-30T02:34:25.373Z,4.53
2022-07-30T02:39:30.862Z,4.65
2022-07-30T02:44:38.735Z,5.18
2022-07-30T02:49:44.060Z,5.93
2022-07-30T02:54:49.207Z,6.03
2022-07-30T02:59:56.011Z,5.45
2022-07-30T03:05:00.259Z,5.63
2022-07-30T03:10:04.938Z,5.30
2022-07-30T03:15:11.008Z,6.40
2022-07-30T03:20:17.217Z,5.55
2022-07-30T03:25:24.837Z,5.40
2022-07-30T03:30:30.258Z,4.32
2022-07-30T03:35:34.379Z,5.10
2022-07-30T03:40:37.667Z,5.72
2022-07-30T03:45:45.399Z,5.40
2022-07-30T03:50:49.517Z,5.15
2022-07-30T03:55:53.346Z,5.15
2022-07-30T04:00:57.998Z,5.75
2022-07-30T04:06:01.624Z,6.20
2022-07-30T04:11:04.827Z,6.28
2022-07-30T04:16:39.735Z,6.05
2022-07-30T04:21:42.838Z,5.30
2022-07-30T04:26:47.727Z,5.72
2022-07-30T04:31:54.151Z,5.63
2022-07-30T04:36:57.997Z,5.32
2022-07-30T04:42:01.907Z,5.63
2022-07-30T04:47:07.000Z,6.25
2022-07-30T04:52:12.397Z,7.18
2022-07-30T04:57:17.498Z,5.95
2022-07-30T05:02:24.296Z,6.03
2022-07-30T05:07:28.458Z,6.72
2022-07-30T05:12:37.775Z,5.88
2022-07-30T05:17:42.653Z,4.82
2022-07-30T05:22:50.752Z,5.00
2022-07-30T05:27:56.792Z,5.25
2022-07-30T05:33:03.499Z,4.72
2022-07-30T05:38:11.980Z,5.23
2022-07-30T05:43:15.126Z,5.82
2022-07-30T05:48:19.638Z,4.63
2022-07-30T05:53:23.128Z,6.57
2022-07-30T05:58:26.658Z,5.13
2022-07-30T06:03:31.231Z,6.35
2022-07-30T06:08:34.760Z,5.32
2022-07-30T06:13:38.677Z,5.43
2022-07-30T06:18:43.359Z,5.28
2022-07-30T06:23:46.793Z,5.30
2022-07-30T06:28:50.572Z,5.45
2022-07-30T06:33:55.309Z,5.68
2022-07-30T06:38:58.543Z,4.72
2022-07-30T06:44:01.751Z,4.97
2022-07-30T06:49:06.662Z,5.25
2022-07-30T06:54:10.011Z,5.90
2022-07-30T06:59:13.200Z,5.63
2022-07-30T07:04:17.807Z,4.55
2022-07-30T07:09:20.976Z,5.30
2022-07-30T07:14:24.141Z,4.80
2022-07-30T07:20:01.572Z,4.90
2022-07-30T07:24:52.391Z,5.13
2022-07-30T07:30:05.512Z,4.80
2022-07-30T07:35:12.314Z,3.92
2022-07-30T07:40:15.707Z,4.72
2022-07-30T07:45:19.180Z,3.65
2022-07-30T07:50:24.273Z,4.00
2022-07-30T07:55:27.939Z,3.97
2022-07-30T08:00:34.541Z,3.88
2022-07-30T08:06:00.812Z,4.30
2022-07-30T08:11:02.934Z,3.88
2022-07-30T08:16:12.652Z,3.72
2022-07-30T08:21:17.796Z,3.90
2022-07-30T08:26:21.289Z,3.47
2022-07-30T08:31:24.941Z,3.40
2022-07-30T08:36:29.829Z,4.43
2022-07-30T08:41:33.314Z,4.28
2022-07-30T08:46:37.790Z,4.38
2022-07-30T08:51:43.786Z,4.10
2022-07-30T08:56:49.799Z,4.15
2022-07-30T09:01:53.688Z,4.55
2022-07-30T09:06:59.167Z,4.55
2022-07-30T09:12:02.971Z,4.40
2022-07-30T09:17:07.549Z,4.70
2022-07-30T09:22:15.642Z,4.28
2022-07-30T09:27:19.313Z,4.57
2022-07-30T09:32:22.969Z,4.60
2022-07-30T09:37:28.032Z,4.50
2022-07-30T09:42:32.312Z,4.57
2022-07-30T09:47:37.650Z,4.13
2022-07-30T09:52:49.079Z,5.35
2022-07-30T09:57:58.871Z,5.85
2022-07-30T10:03:12.527Z,4.53
2022-07-30T10:08:41.043Z,4.70
2022-07-30T10:13:45.911Z,4.45
2022-07-30T10:18:50.224Z,4.95
2022-07-30T10:23:55.980Z,5.63
2022-07-30T10:29:02.828Z,5.60
2022-07-30T10:34:06.396Z,5.65
2022-07-30T10:39:16.636Z,5.03
2022-07-30T10:44:52.285Z,5.03
2022-07-30T10:50:11.844Z,4.95
2022-07-30T10:55:17.352Z,5.93
2022-07-30T11:00:20.910Z,5.72
2022-07-30T11:05:27.321Z,6.53
2022-07-30T11:10:49.484Z,5.57
2022-07-30T11:15:59.086Z,5.57
2022-07-30T11:21:21.175Z,6.10
2022-07-30T11:31:56.615Z,5.32
2022-07-30T11:37:22.289Z,5.68
2022-07-30T11:42:36.484Z,5.53
2022-07-30T11:47:41.822Z,4.82
2022-07-30T11:52:45.724Z,5.25
2022-07-30T11:57:49.469Z,5.20
2022-07-30T12:02:54.753Z,5.55
2022-07-30T12:07:59.761Z,5.28
2022-07-30T12:13:11.088Z,5.55
2022-07-30T12:18:26.606Z,4.90
2022-07-30T12:23:31.241Z,5.15
2022-07-30T12:28:36.822Z,5.22
2022-07-30T12:33:42.282Z,4.50
2022-07-30T12:38:50.571Z,4.57
2022-07-30T12:43:55.970Z,4.05
2022-07-30T12:49:06.969Z,3.40
2022-07-30T12:54:25.096Z,3.97
2022-07-30T12:59:29.200Z,3.78
2022-07-30T13:04:39.739Z,3.72
2022-07-30T13:09:43.844Z,4.95
2022-07-30T13:14:50.354Z,3.78
2022-07-30T13:19:55.505Z,3.40
2022-07-30T13:24:58.757Z,3.75
2022-07-30T13:30:01.874Z,3.88
2022-07-30T13:35:07.806Z,3.90
2022-07-30T13:40:11.891Z,4.07
2022-07-30T13:45:15.328Z,3.30
2022-07-30T13:50:20.303Z,4.15
2022-07-30T13:55:23.724Z,3.97
2022-07-30T14:00:32.406Z,4.28
2022-07-30T14:05:42.058Z,3.53
2022-07-30T14:10:45.858Z,4.10
2022-07-30T14:15:49.147Z,4.25
2022-07-30T14:20:53.859Z,4.22
2022-07-30T14:25:57.024Z,4.30
2022-07-30T14:31:00.209Z,3.72
2022-07-30T14:36:05.161Z,4.35
2022-07-30T14:41:08.936Z,4.05
2022-07-30T14:46:12.191Z,4.35
2022-07-30T14:51:23.004Z,4.18
2022-07-30T14:56:29.351Z,3.67
2022-07-30T15:01:32.721Z,4.00
2022-07-30T15:06:42.357Z,4.03
2022-07-30T15:12:07.688Z,4.03
2022-07-30T15:17:09.648Z,3.85
2022-07-30T15:22:14.672Z,3.50
2022-07-30T15:27:18.446Z,3.50
2022-07-30T15:32:21.853Z,3.63
2022-07-30T15:37:26.579Z,3.42
2022-07-30T15:42:31.546Z,2.80
2022-07-30T15:47:35.064Z,3.33
2022-07-30T15:52:40.123Z,2.60
2022-07-30T15:57:44.372Z,2.55
2022-07-30T16:02:47.862Z,2.63
2022-07-30T16:07:52.765Z,2.60
2022-07-30T16:12:56.535Z,2.30
2022-07-30T16:18:00.578Z,2.75
2022-07-30T16:23:08.129Z,2.33
2022-07-30T16:33:20.738Z,2.40
2022-07-30T16:38:26.282Z,3.42
2022-07-30T16:43:32.301Z,2.08
2022-07-30T16:48:35.625Z,2.40
2022-07-30T16:53:40.440Z,2.65
2022-07-30T16:58:43.692Z,2.42
2022-07-30T17:03:47.365Z,2.63
2022-07-30T17:08:52.557Z,2.65
2022-07-30T17:13:56.130Z,2.65
2022-07-30T17:18:59.779Z,2.58
2022-07-30T17:24:14.420Z,2.28
2022-07-30T17:29:18.035Z,1.90
2022-07-30T17:34:21.622Z,2.42
2022-07-30T17:40:29.494Z,2.63
2022-07-30T17:44:50.335Z,2.25
2022-07-30T17:49:53.533Z,2.90
2022-07-30T17:54:58.173Z,3.30
2022-07-30T18:00:01.437Z,2.78
2022-07-30T18:05:05.046Z,2.38
2022-07-30T18:10:10.868Z,2.90
2022-07-30T18:15:14.035Z,3.20
2022-07-30T18:20:17.689Z,2.50
2022-07-30T18:25:23.250Z,2.67
2022-07-30T18:30:26.911Z,2.90
2022-07-30T18:35:30.530Z,3.35
2022-07-30T18:40:35.230Z,2.88
2022-07-30T18:45:38.812Z,3.58
2022-07-30T18:50:42.432Z,2.88
2022-07-30T18:55:47.045Z,3.45
2022-07-30T19:00:51.071Z,3.88
2022-07-30T19:05:54.772Z,3.88
2022-07-30T19:10:59.821Z,3.83
2022-07-30T19:16:03.379Z,3.35
2022-07-30T19:21:09.109Z,4.18
2022-07-30T19:26:17.258Z,3.88
2022-07-30T19:31:20.909Z,3.83
2022-07-30T19:36:24.308Z,3.80
2022-07-30T19:41:37.779Z,3.95
2022-07-30T19:46:41.885Z,4.28
2022-07-30T19:52:02.255Z,3.92
2022-07-30T19:57:10.417Z,4.78
2022-07-30T20:02:15.983Z,3.75
2022-07-30T20:07:19.750Z,5.00
2022-07-30T20:12:25.462Z,4.38
2022-07-30T20:17:30.099Z,4.78
2022-07-30T20:22:38.852Z,4.28
2022-07-30T20:27:45.004Z,4.93
2022-07-30T20:32:52.854Z,4.10
2022-07-30T20:37:56.742Z,4.88
2022-07-30T20:43:05.672Z,4.90
2022-07-30T20:48:16.938Z,5.13
2022-07-30T20:53:23.391Z,5.70
2022-07-30T20:58:28.211Z,4.88
2022-07-30T21:03:31.704Z,5.82
2022-07-30T21:08:35.545Z,5.35
2022-07-30T21:13:41.425Z,5.72
2022-07-30T21:18:49.704Z,5.70
2022-07-30T21:23:53.675Z,5.57
2022-07-30T21:29:01.259Z,6.65
2022-07-30T21:34:04.472Z,6.43
2022-07-30T21:39:07.874Z,6.57
2022-07-30T21:44:12.498Z,5.38
2022-07-30T21:49:15.936Z,6.25
2022-07-30T21:54:28.498Z,7.25
2022-07-30T21:59:33.978Z,6.60
2022-07-30T22:04:37.449Z,6.47
2022-07-30T22:09:41.044Z,6.53
2022-07-30T22:14:49.437Z,6.78
2022-07-30T22:19:54.623Z,6.32
2022-07-30T22:25:00.080Z,6.95
2022-07-30T22:30:05.611Z,7.22
2022-07-30T22:35:10.502Z,6.18
2022-07-30T22:40:15.814Z,6.45
2022-07-30T22:50:45.431Z,7.15
2022-07-30T22:55:55.309Z,6.60
2022-07-30T23:01:00.794Z,7.10
2022-07-30T23:06:03.939Z,6.93
2022-07-30T23:11:07.565Z,6.90
2022-07-30T23:12:34.024Z,6.72
2022-07-30T23:16:12.725Z,6.90
2022-07-30T23:21:16.220Z,7.75
2022-07-30T23:26:19.572Z,6.78
2022-07-30T23:31:26.926Z,7.70
2022-07-30T23:36:30.743Z,6.95
2022-07-30T23:41:34.120Z,7.53
2022-07-30T23:46:38.835Z,6.13
2022-07-30T23:51:42.359Z,6.25
2022-07-30T23:56:45.940Z,6.97
